Time,TemperatureF,DewpointF,PressureIn,WindDirection,WindDirectionDegrees,WindSpeedMPH,WindSpeedGustMPH,Humidity,HourlyPrecipIn,Conditions,Clouds,dailyrainin,SoftwareType,DateUTC
2013-03-13 00:00:00,69.4,65.4,29.93,NNW,339,0.0,2.0,87,0.00,,---,0.00,VWS V14.01,2013-03-13 04:00:00,
2013-03-13 00:05:00,69.4,65.4,29.93,NNW,339,0.0,0.0,87,0.00,,---,0.00,VWS V14.01,2013-03-13 04:05:00,
2013-03-13 00:10:00,69.4,65.4,29.93,NNW,339,0.0,0.0,87,0.00,,---,0.00,VWS V14.01,2013-03-13 04:10:00,
2013-03-13 00:15:00,69.4,65.4,29.93,NNW,336,0.0,1.0,87,0.00,,---,0.00,VWS V14.01,2013-03-13 04:15:00,
2013-03-13 00:20:00,69.4,65.4,29.93,NNW,336,0.0,1.0,87,0.00,,---,0.00,VWS V14.01,2013-03-13 04:20:00,
2013-03-13 00:25:00,69.5,65.5,29.93,NNW,336,0.0,1.0,87,0.00,,---,0.00,VWS V14.01,2013-03-13 04:25:00,
2013-03-13 00:30:00,69.5,65.5,29.93,SW,221,0.0,0.0,87,0.00,,---,0.00,VWS V14.01,2013-03-13 04:30:00,
2013-03-13 00:35:00,69.5,65.5,29.93,NW,323,1.0,3.0,87,0.00,,---,0.00,VWS V14.01,2013-03-13 04:35:00,
2013-03-13 00:40:00,69.4,65.4,29.94,NNE,32,2.0,3.0,87,0.00,,---,0.00,VWS V14.01,2013-03-13 04:40:00,
2013-03-13 00:45:00,69.4,65.4,29.94,NNW,338,3.0,6.0,87,0.00,,---,0.00,VWS V14.01,2013-03-13 04:45:00,
2013-03-13 00:50:00,69.3,65.3,29.94,NW,304,5.0,6.0,87,0.00,,---,0.00,VWS V14.01,2013-03-13 04:50:00,
2013-03-13 00:55:00,69.1,64.7,29.93,NW,311,0.0,6.0,86,0.00,,---,0.00,VWS V14.01,2013-03-13 04:55:00,
2013-03-13 01:00:00,68.9,64.6,29.94,NW,309,0.0,1.0,86,0.00,,---,0.00,VWS V14.01,2013-03-13 05:00:00,
2013-03-13 01:05:00,68.6,64.2,29.94,NW,324,2.0,4.0,86,0.00,,---,0.00,VWS V14.01,2013-03-13 05:05:00,
2013-03-13 01:10:00,68.3,64.3,29.93,NW,316,1.0,4.0,87,0.00,,---,0.00,VWS V14.01,2013-03-13 05:10:00,
2013-03-13 01:15:00,67.9,63.9,29.93,NNW,329,0.0,4.0,87,0.00,,---,0.00,VWS V14.01,2013-03-13 05:15:00,
2013-03-13 01:20:00,67.7,64.0,29.93,NNW,327,0.0,4.0,88,0.00,,---,0.00,VWS V14.01,2013-03-13 05:20:00,
2013-03-13 01:25:00,67.6,64.2,29.93,NNW,336,1.0,4.0,89,0.00,,---,0.00,VWS V14.01,2013-03-13 05:25:00,
2013-03-13 01:30:00,67.5,64.2,29.94,NNW,336,2.0,2.0,89,0.00,,---,0.00,VWS V14.01,2013-03-13 05:30:00,
2013-03-13 01:35:00,67.4,64.1,29.94,NW,310,1.0,5.0,89,0.00,,---,0.00,VWS V14.01,2013-03-13 05:35:00,
2013-03-13 01:40:00,67.3,63.6,29.94,NW,321,3.0,5.0,88,0.00,,---,0.00,VWS V14.01,2013-03-13 05:40:00,
2013-03-13 01:45:00,67.2,63.8,29.94,NW,316,3.0,5.0,89,0.00,,---,0.00,VWS V14.01,2013-03-13 05:45:00,
2013-03-13 01:50:00,67.0,63.3,29.94,NW,325,2.0,5.0,88,0.00,,---,0.00,VWS V14.01,2013-03-13 05:50:00,
2013-03-13 01:55:00,66.6,62.3,29.94,NW,325,2.0,5.0,86,0.00,,---,0.00,VWS V14.01,2013-03-13 05:55:00,
2013-03-13 02:00:00,66.4,62.1,29.94,NW,317,1.0,2.0,86,0.00,,---,0.00,VWS V14.01,2013-03-13 06:00:00,
2013-03-13 02:05:00,66.2,61.9,29.93,NW,315,1.0,5.0,86,0.00,,---,0.00,VWS V14.01,2013-03-13 06:05:00,
2013-03-13 02:10:00,66.2,61.9,29.93,NNW,334,0.0,5.0,86,0.00,,---,0.00,VWS V14.01,2013-03-13 06:10:00,
2013-03-13 02:15:00,66.1,61.8,29.94,NNW,332,0.0,5.0,86,0.00,,---,0.00,VWS V14.01,2013-03-13 06:15:00,
2013-03-13 02:20:00,65.9,61.6,29.93,NNW,336,2.0,5.0,86,0.00,,---,0.00,VWS V14.01,2013-03-13 06:20:00,
2013-03-13 02:25:00,65.8,61.2,29.94,NNW,333,2.0,5.0,85,0.00,,---,0.00,VWS V14.01,2013-03-13 06:25:00,
2013-03-13 02:30:00,65.7,61.1,29.94,NNW,333,0.0,3.0,85,0.00,,---,0.00,VWS V14.01,2013-03-13 06:30:00,
2013-03-13 02:35:00,65.6,60.6,29.94,NNW,332,2.0,3.0,84,0.00,,---,0.00,VWS V14.01,2013-03-13 06:35:00,
2013-03-13 02:40:00,65.5,60.5,29.94,NW,325,0.0,4.0,84,0.00,,---,0.00,VWS V14.01,2013-03-13 06:40:00,
2013-03-13 02:45:00,65.4,60.1,29.94,NNW,329,2.0,4.0,83,0.00,,---,0.00,VWS V14.01,2013-03-13 06:45:00,
2013-03-13 02:50:00,65.3,60.3,29.94,WNW,301,2.0,4.0,84,0.00,,---,0.00,VWS V14.01,2013-03-13 06:50:00,
2013-03-13 02:55:00,65.2,60.2,29.94,NW,309,5.0,6.0,84,0.00,,---,0.00,VWS V14.01,2013-03-13 06:55:00,
2013-03-13 03:00:00,65.0,60.0,29.94,NW,314,2.0,2.0,84,0.00,,---,0.00,VWS V14.01,2013-03-13 07:00:00,
2013-03-13 03:05:00,64.7,60.1,29.94,NW,316,6.0,6.0,85,0.00,,---,0.00,VWS V14.01,2013-03-13 07:05:00,
2013-03-13 03:10:00,64.6,60.3,29.93,NW,317,3.0,6.0,86,0.00,,---,0.00,VWS V14.01,2013-03-13 07:10:00,
2013-03-13 03:15:00,64.5,60.2,29.93,NW,322,2.0,6.0,86,0.00,,---,0.00,VWS V14.01,2013-03-13 07:15:00,
2013-03-13 03:20:00,64.1,59.5,29.93,NW,315,0.0,6.0,85,0.00,,---,0.00,VWS V14.01,2013-03-13 07:20:00,
2013-03-13 03:25:00,63.7,59.1,29.93,NW,315,2.0,6.0,85,0.00,,---,0.00,VWS V14.01,2013-03-13 07:25:00,
2013-03-13 03:30:00,63.1,58.5,29.93,NW,323,4.0,4.0,85,0.00,,---,0.00,VWS V14.01,2013-03-13 07:30:00,
2013-03-13 03:35:00,62.6,58.4,29.92,NW,312,0.0,5.0,86,0.00,,---,0.00,VWS V14.01,2013-03-13 07:35:00,
2013-03-13 03:40:00,62.1,57.9,29.92,NW,312,2.0,5.0,86,0.00,,---,0.00,VWS V14.01,2013-03-13 07:40:00,
2013-03-13 03:45:00,61.7,57.8,29.92,NW,313,4.0,5.0,87,0.00,,---,0.00,VWS V14.01,2013-03-13 07:45:00,
2013-03-13 03:50:00,61.4,57.8,29.92,NW,315,1.0,5.0,88,0.00,,---,0.00,VWS V14.01,2013-03-13 07:50:00,
2013-03-13 03:55:00,61.1,57.5,29.92,NW,317,2.0,5.0,88,0.00,,---,0.00,VWS V14.01,2013-03-13 07:55:00,
2013-03-13 04:00:00,60.9,57.6,29.93,NNW,346,2.0,2.0,89,0.00,,---,0.00,VWS V14.01,2013-03-13 08:00:00,
2013-03-13 04:06:00,60.7,57.4,29.92,NW,323,1.0,4.0,89,0.00,,---,0.00,VWS V14.01,2013-03-13 08:06:00,
2013-03-13 04:11:00,60.6,57.3,29.93,NNW,327,4.0,5.0,89,0.00,,---,0.00,VWS V14.01,2013-03-13 08:11:00,
2013-03-13 04:16:00,60.5,57.2,29.93,NW,320,5.0,6.0,89,0.00,,---,0.00,VWS V14.01,2013-03-13 08:16:00,
2013-03-13 04:21:00,60.3,57.0,29.93,NW,320,1.0,6.0,89,0.00,,---,0.00,VWS V14.01,2013-03-13 08:21:00,
2013-03-13 04:26:00,60.0,56.8,29.93,West,271,0.0,6.0,89,0.00,,---,0.00,VWS V14.01,2013-03-13 08:26:00,
2013-03-13 04:30:00,59.9,56.7,29.93,NW,315,2.0,6.0,89,0.00,,---,0.00,VWS V14.01,2013-03-13 08:30:00,
2013-03-13 04:31:00,59.9,56.7,29.93,NW,308,4.0,5.0,89,0.00,,---,0.00,VWS V14.01,2013-03-13 08:31:00,
2013-03-13 04:36:00,59.7,56.5,29.93,NW,308,4.0,5.0,89,0.00,,---,0.00,VWS V14.01,2013-03-13 08:36:00,
2013-03-13 04:41:00,59.5,56.3,29.93,WNW,300,4.0,5.0,89,0.00,,---,0.00,VWS V14.01,2013-03-13 08:41:00,
2013-03-13 04:46:00,59.3,56.4,29.93,NW,315,1.0,6.0,90,0.00,,---,0.00,VWS V14.01,2013-03-13 08:46:00,
2013-03-13 04:52:00,59.1,56.2,29.93,WNW,300,3.0,6.0,90,0.00,,---,0.00,VWS V14.01,2013-03-13 08:52:00,
2013-03-13 04:57:00,59.0,56.1,29.93,NW,304,1.0,6.0,90,0.00,,---,0.00,VWS V14.01,2013-03-13 08:57:00,
2013-03-13 05:00:00,58.9,56.0,29.94,NW,311,4.0,6.0,90,0.00,,---,0.00,VWS V14.01,2013-03-13 09:00:00,
2013-03-13 05:02:00,58.8,55.9,29.94,WNW,302,3.0,4.0,90,0.00,,---,0.00,VWS V14.01,2013-03-13 09:02:00,
2013-03-13 05:07:00,58.6,55.7,29.94,WNW,302,2.0,4.0,90,0.00,,---,0.00,VWS V14.01,2013-03-13 09:07:00,
2013-03-13 05:12:00,58.5,55.6,29.94,WNW,302,1.0,4.0,90,0.00,,---,0.00,VWS V14.01,2013-03-13 09:12:00,
2013-03-13 05:17:00,58.2,55.6,29.94,NW,307,1.0,4.0,91,0.00,,---,0.00,VWS V14.01,2013-03-13 09:17:00,
2013-03-13 05:22:00,57.9,55.3,29.94,NW,304,4.0,4.0,91,0.00,,---,0.00,VWS V14.01,2013-03-13 09:22:00,
2013-03-13 05:27:00,57.8,55.2,29.94,WNW,301,3.0,4.0,91,0.00,,---,0.00,VWS V14.01,2013-03-13 09:27:00,
2013-03-13 05:30:00,57.7,55.1,29.94,NW,304,1.0,4.0,91,0.00,,---,0.00,VWS V14.01,2013-03-13 09:30:00,
2013-03-13 05:32:00,57.6,55.0,29.94,WNW,300,0.0,4.0,91,0.00,,---,0.00,VWS V14.01,2013-03-13 09:32:00,
2013-03-13 05:37:00,57.4,54.8,29.94,NW,325,2.0,4.0,91,0.00,,---,0.00,VWS V14.01,2013-03-13 09:37:00,
2013-03-13 05:42:00,57.3,54.7,29.94,NW,311,1.0,4.0,91,0.00,,---,0.00,VWS V14.01,2013-03-13 09:42:00,
2013-03-13 05:47:00,57.1,54.5,29.94,NW,320,3.0,5.0,91,0.00,,---,0.00,VWS V14.01,2013-03-13 09:47:00,
2013-03-13 05:52:00,57.1,54.8,29.95,NW,321,3.0,5.0,92,0.00,,---,0.00,VWS V14.01,2013-03-13 09:52:00,
2013-03-13 05:57:00,57.1,54.8,29.95,NNW,327,2.0,5.0,92,0.00,,---,0.00,VWS V14.01,2013-03-13 09:57:00,
2013-03-13 06:00:00,57.0,54.7,29.95,NW,325,3.0,5.0,92,0.00,,---,0.00,VWS V14.01,2013-03-13 10:00:00,
2013-03-13 06:02:00,57.0,54.7,29.95,NW,321,5.0,5.0,92,0.00,,---,0.00,VWS V14.01,2013-03-13 10:02:00,
2013-03-13 06:07:00,57.0,54.7,29.95,NNW,344,3.0,8.0,92,0.00,,---,0.00,VWS V14.01,2013-03-13 10:07:00,
2013-03-13 06:12:00,57.0,54.4,29.95,NNW,329,5.0,8.0,91,0.00,,---,0.00,VWS V14.01,2013-03-13 10:12:00,
2013-03-13 06:17:00,56.9,54.3,29.95,NNW,331,3.0,8.0,91,0.00,,---,0.00,VWS V14.01,2013-03-13 10:17:00,
2013-03-13 06:22:00,56.8,54.2,29.96,North,355,2.0,8.0,91,0.00,,---,0.00,VWS V14.01,2013-03-13 10:22:00,
2013-03-13 06:27:00,56.8,54.2,29.96,NW,320,5.0,8.0,91,0.00,,---,0.00,VWS V14.01,2013-03-13 10:27:00,
2013-03-13 06:30:00,56.7,54.1,29.96,NW,321,1.0,8.0,91,0.00,,---,0.00,VWS V14.01,2013-03-13 10:30:00,
2013-03-13 06:32:00,56.7,54.1,29.96,NW,306,4.0,4.0,91,0.00,,---,0.00,VWS V14.01,2013-03-13 10:32:00,
2013-03-13 06:37:00,56.7,54.4,29.96,NW,316,1.0,6.0,92,0.00,,---,0.00,VWS V14.01,2013-03-13 10:37:00,
2013-03-13 06:42:00,56.7,54.1,29.97,NW,304,3.0,6.0,91,0.00,,---,0.00,VWS V14.01,2013-03-13 10:42:00,
2013-03-13 06:47:00,56.7,54.4,29.97,NNW,332,2.0,6.0,92,0.00,,---,0.00,VWS V14.01,2013-03-13 10:47:00,
2013-03-13 06:52:00,56.7,54.4,29.97,NNW,336,1.0,6.0,92,0.00,,---,0.00,VWS V14.01,2013-03-13 10:52:00,
2013-03-13 06:57:00,56.6,54.3,29.97,NW,318,2.0,6.0,92,0.00,,---,0.00,VWS V14.01,2013-03-13 10:57:00,
2013-03-13 07:00:00,56.6,54.3,29.97,WNW,302,2.0,6.0,92,0.00,,---,0.00,VWS V14.01,2013-03-13 11:00:00,
2013-03-13 07:02:00,56.6,54.3,29.97,NW,317,2.0,4.0,92,0.00,,---,0.00,VWS V14.01,2013-03-13 11:02:00,
2013-03-13 07:07:00,56.5,54.2,29.97,NW,311,2.0,5.0,92,0.00,,---,0.00,VWS V14.01,2013-03-13 11:07:00,
2013-03-13 07:12:00,56.4,54.1,29.98,NW,311,2.0,5.0,92,0.00,,---,0.00,VWS V14.01,2013-03-13 11:12:00,
2013-03-13 07:17:00,56.2,53.9,29.98,NW,321,3.0,5.0,92,0.00,,---,0.00,VWS V14.01,2013-03-13 11:17:00,
2013-03-13 07:22:00,56.1,53.8,29.98,NW,311,2.0,5.0,92,0.00,,---,0.00,VWS V14.01,2013-03-13 11:22:00,
2013-03-13 07:27:00,56.1,53.8,29.98,NNW,329,1.0,5.0,92,0.00,,---,0.00,VWS V14.01,2013-03-13 11:27:00,
2013-03-13 07:30:00,56.0,53.4,29.98,NW,317,0.0,5.0,91,0.00,,---,0.00,VWS V14.01,2013-03-13 11:30:00,
2013-03-13 07:32:00,56.0,53.4,29.98,NW,320,0.0,3.0,91,0.00,,---,0.00,VWS V14.01,2013-03-13 11:32:00,
2013-03-13 07:37:00,55.9,53.3,29.99,NW,304,0.0,3.0,91,0.00,,---,0.00,VWS V14.01,2013-03-13 11:37:00,
2013-03-13 07:42:00,55.9,53.3,29.99,NW,304,0.0,3.0,91,0.00,,---,0.00,VWS V14.01,2013-03-13 11:42:00,
2013-03-13 07:47:00,55.9,53.3,29.99,WNW,300,3.0,3.0,91,0.00,,---,0.00,VWS V14.01,2013-03-13 11:47:00,
2013-03-13 07:52:00,55.9,53.3,29.99,NW,320,2.0,4.0,91,0.00,,---,0.00,VWS V14.01,2013-03-13 11:52:00,
2013-03-13 07:57:00,56.0,53.4,29.99,WNW,298,0.0,4.0,91,0.00,,---,0.00,VWS V14.01,2013-03-13 11:57:00,
2013-03-13 08:00:00,56.0,53.4,29.99,NW,320,3.0,4.0,91,0.00,,---,0.00,VWS V14.01,2013-03-13 12:00:00,
2013-03-13 08:02:00,56.1,53.2,29.99,NW,313,1.0,5.0,90,0.00,,---,0.00,VWS V14.01,2013-03-13 12:02:00,
2013-03-13 08:07:00,56.2,53.3,30.00,NW,306,3.0,5.0,90,0.00,,---,0.00,VWS V14.01,2013-03-13 12:07:00,
2013-03-13 08:12:00,56.4,53.2,30.00,NW,310,4.0,5.0,89,0.00,,---,0.00,VWS V14.01,2013-03-13 12:12:00,
2013-03-13 08:17:00,56.5,53.3,30.00,NW,318,3.0,6.0,89,0.00,,---,0.00,VWS V14.01,2013-03-13 12:17:00,
2013-03-13 08:22:00,56.7,53.2,30.00,WNW,300,3.0,6.0,88,0.00,,---,0.00,VWS V14.01,2013-03-13 12:22:00,
2013-03-13 08:27:00,56.8,53.3,30.00,NW,315,2.0,6.0,88,0.00,,---,0.00,VWS V14.01,2013-03-13 12:27:00,
2013-03-13 08:30:00,56.8,53.3,30.00,NNW,329,0.0,6.0,88,0.00,,---,0.00,VWS V14.01,2013-03-13 12:30:00,
2013-03-13 08:32:00,56.9,53.4,30.00,WNW,301,4.0,4.0,88,0.00,,---,0.00,VWS V14.01,2013-03-13 12:32:00,
2013-03-13 08:37:00,57.0,53.2,30.00,WNW,295,3.0,6.0,87,0.00,,---,0.00,VWS V14.01,2013-03-13 12:37:00,
2013-03-13 08:42:00,57.1,53.0,30.00,NNW,338,4.0,8.0,86,0.00,,---,0.00,VWS V14.01,2013-03-13 12:42:00,
2013-03-13 08:47:00,57.2,53.1,30.01,WNW,283,4.0,8.0,86,0.00,,---,0.00,VWS V14.01,2013-03-13 12:47:00,
2013-03-13 08:52:00,57.3,52.8,30.01,NNW,332,4.0,8.0,85,0.00,,---,0.00,VWS V14.01,2013-03-13 12:52:00,
2013-03-13 08:57:00,57.4,52.9,30.02,NW,320,2.0,8.0,85,0.00,,---,0.00,VWS V14.01,2013-03-13 12:57:00,
2013-03-13 09:00:00,57.5,53.0,30.02,NW,320,2.0,8.0,85,0.00,,---,0.00,VWS V14.01,2013-03-13 13:00:00,
2013-03-13 09:02:00,57.6,53.1,30.02,NW,306,2.0,5.0,85,0.00,,---,0.00,VWS V14.01,2013-03-13 13:02:00,
2013-03-13 09:07:00,57.8,53.0,30.02,NW,309,2.0,6.0,84,0.00,,---,0.00,VWS V14.01,2013-03-13 13:07:00,
2013-03-13 09:12:00,58.1,53.6,30.02,NW,316,1.0,6.0,85,0.00,,---,0.00,VWS V14.01,2013-03-13 13:12:00,
2013-03-13 09:17:00,58.3,53.5,30.02,NW,317,2.0,6.0,84,0.00,,---,0.00,VWS V14.01,2013-03-13 13:17:00,
2013-03-13 09:22:00,58.4,53.6,30.02,NW,311,3.0,6.0,84,0.00,,---,0.00,VWS V14.01,2013-03-13 13:22:00,
2013-03-13 09:27:00,58.4,53.3,30.02,NW,316,1.0,6.0,83,0.00,,---,0.00,VWS V14.01,2013-03-13 13:27:00,
2013-03-13 09:30:00,58.6,53.5,30.02,NW,325,2.0,6.0,83,0.00,,---,0.00,VWS V14.01,2013-03-13 13:30:00,
2013-03-13 09:32:00,58.7,53.6,30.02,NW,304,5.0,5.0,83,0.00,,---,0.00,VWS V14.01,2013-03-13 13:32:00,
2013-03-13 09:37:00,59.4,54.2,30.02,WNW,303,5.0,5.0,83,0.00,,---,0.00,VWS V14.01,2013-03-13 13:37:00,
2013-03-13 09:42:00,60.0,54.2,30.03,NNW,332,4.0,8.0,81,0.00,,---,0.00,VWS V14.01,2013-03-13 13:42:00,
2013-03-13 09:47:00,60.3,54.5,30.03,NW,324,4.0,8.0,81,0.00,,---,0.00,VWS V14.01,2013-03-13 13:47:00,
2013-03-13 09:52:00,60.4,54.5,30.03,NNW,329,2.0,8.0,81,0.00,,---,0.00,VWS V14.01,2013-03-13 13:52:00,
2013-03-13 09:58:00,60.9,54.7,30.03,NNW,344,1.0,8.0,80,0.00,,---,0.00,VWS V14.01,2013-03-13 13:58:00,
2013-03-13 10:00:00,60.9,54.7,30.03,North,5,3.0,8.0,80,0.00,,---,0.00,VWS V14.01,2013-03-13 14:00:00,
2013-03-13 10:17:00,62.3,55.4,30.03,NW,305,1.0,7.0,78,0.00,,---,0.00,VWS V14.01,2013-03-13 14:17:00,
2013-03-13 10:22:00,62.9,55.6,30.04,NW,304,2.0,7.0,77,0.00,,---,0.00,VWS V14.01,2013-03-13 14:22:00,
2013-03-13 10:27:00,63.3,56.3,30.04,NE,53,2.0,7.0,78,0.00,,---,0.00,VWS V14.01,2013-03-13 14:27:00,
2013-03-13 10:30:00,63.7,56.7,30.04,WNW,292,5.0,7.0,78,0.00,,---,0.00,VWS V14.01,2013-03-13 14:30:00,
2013-03-13 10:33:00,63.9,56.6,30.04,WNW,288,0.0,5.0,77,0.00,,---,0.00,VWS V14.01,2013-03-13 14:33:00,
2013-03-13 10:38:00,63.9,56.2,30.04,NNE,29,2.0,6.0,76,0.00,,---,0.00,VWS V14.01,2013-03-13 14:38:00,
2013-03-13 10:42:00,63.9,56.2,30.04,NNW,348,2.0,6.0,76,0.00,,---,0.00,VWS V14.01,2013-03-13 14:42:00,
2013-03-13 11:00:00,64.5,56.4,30.04,NW,315,3.0,6.0,75,0.00,,---,0.00,VWS V14.01,2013-03-13 15:00:00,
2013-03-13 11:30:00,67.3,58.7,30.05,NW,315,2.0,7.0,74,0.00,,---,0.00,VWS V14.01,2013-03-13 15:30:00,
2013-03-13 12:00:00,69.7,58.7,30.05,NW,315,2.0,7.0,68,0.00,,---,0.00,VWS V14.01,2013-03-13 16:00:00,
2013-03-13 12:30:00,71.1,58.8,30.05,NW,315,3.0,10.0,65,0.00,,---,0.00,VWS V14.01,2013-03-13 16:30:00,
2013-03-13 13:00:00,71.5,59.1,30.05,NW,315,3.0,8.0,65,0.00,,---,0.00,VWS V14.01,2013-03-13 17:00:00,
2013-03-13 13:30:00,72.1,58.4,30.04,NW,315,3.0,10.0,62,0.00,,---,0.00,VWS V14.01,2013-03-13 17:30:00,
2013-03-13 14:00:00,73.3,58.1,30.03,NW,315,3.0,12.0,59,0.00,,---,0.00,VWS V14.01,2013-03-13 18:00:00,
2013-03-13 14:30:00,73.1,55.0,30.02,NW,315,3.0,10.0,53,0.00,,---,0.00,VWS V14.01,2013-03-13 18:30:00,
2013-03-13 15:00:00,72.7,53.5,30.01,NW,315,3.0,9.0,51,0.00,,---,0.00,VWS V14.01,2013-03-13 19:00:00,
2013-03-13 15:30:00,72.8,52.5,30.00,NE,45,3.0,9.0,49,0.00,,---,0.00,VWS V14.01,2013-03-13 19:30:00,
2013-03-13 16:00:00,72.8,50.8,30.00,NW,315,3.0,11.0,46,0.00,,---,0.00,VWS V14.01,2013-03-13 20:00:00,
2013-03-13 16:30:00,71.5,50.8,30.00,NW,315,3.0,10.0,48,0.00,,---,0.00,VWS V14.01,2013-03-13 20:30:00,
2013-03-13 17:00:00,71.8,51.6,29.99,NW,315,3.0,11.0,49,0.00,,---,0.00,VWS V14.01,2013-03-13 21:00:00,
2013-03-13 17:30:00,71.8,48.1,29.99,NW,315,3.0,12.0,43,0.00,,---,0.00,VWS V14.01,2013-03-13 21:30:00,
2013-03-13 18:00:00,71.4,50.7,29.99,NW,315,2.0,8.0,48,0.00,,---,0.00,VWS V14.01,2013-03-13 22:00:00,
2013-03-13 18:30:00,69.2,45.2,30.00,NE,45,2.0,8.0,42,0.00,,---,0.00,VWS V14.01,2013-03-13 22:30:00,
2013-03-13 19:00:00,67.1,46.8,30.00,NE,45,1.0,7.0,48,0.00,,---,0.00,VWS V14.01,2013-03-13 23:00:00,
2013-03-13 19:30:00,65.6,47.5,30.00,NE,45,1.0,5.0,52,0.00,,---,0.00,VWS V14.01,2013-03-13 23:30:00,
2013-03-13 20:00:00,63.9,49.3,30.01,North,0,0.0,2.0,59,0.00,,---,0.00,VWS V14.01,2013-03-14 00:00:00,
2013-03-13 20:30:00,61.1,49.7,30.02,North,0,0.0,0.0,66,0.00,,---,0.00,VWS V14.01,2013-03-14 00:30:00,
2013-03-13 21:00:00,59.3,50.7,30.03,North,0,0.0,0.0,73,0.00,,---,0.00,VWS V14.01,2013-03-14 01:00:00,
2013-03-13 21:30:00,58.3,50.8,30.04,North,0,0.0,0.0,76,0.00,,---,0.00,VWS V14.01,2013-03-14 01:30:00,
2013-03-13 22:00:00,57.2,51.4,30.05,North,0,0.0,0.0,81,0.00,,---,0.00,VWS V14.01,2013-03-14 02:00:00,
2013-03-13 22:30:00,56.8,51.7,30.06,North,0,0.0,0.0,83,0.00,,---,0.00,VWS V14.01,2013-03-14 02:30:00,
2013-03-13 23:00:00,55.6,51.2,30.07,North,0,0.0,0.0,85,0.00,,---,0.00,VWS V14.01,2013-03-14 03:00:00,
2013-03-13 23:30:00,55.0,51.8,30.06,North,0,0.0,0.0,89,0.00,,---,0.00,VWS V14.01,2013-03-14 03:30:00,